Thunder radar more information blitzortung!


Löydät sääaseman tiedot myös:

European Weather Network

Finland Weather Exchange

Weather Underground

AWEKAS



Weather Underground säähistoriasivu

Päivittäin yhteenveto Helmikuu 10, 2017 Yksiköt:  Englantilaiset    Metriset   Molemmat
« Edellinen Päivä
Seuraava Päivä »
Päivittäin Viikoittain Kuukausittain Vuosittain Mukautettu
  Korkea: Matala: Keskiarvo:
Lämpötila: TemperatureC °F -16.2 °F -11.5 °F
Kastepiste: DewpointC °F -17.7 °F -12.7 °F
Kosteus: Humidity % 86 % 89 %
Tuulen nopeus: WindSpeedKMH mph 0.0 mph 0 mph
Tuulenpuuska: WindSpeedGustKMH mph - -
Tuuli:- - North
Ilmanpaine: PressurehPa in 1045.3 in -
Sade: 0.0 in    
Historical Graphs
 
 
Taulukkotiedot Helmikuu 10, 2017
Aika Lämpötila Kastepiste Ilmanpaine Tuuli Tuulen nopeus Tuulenpuuska Kosteus Sademäärä (tunneittain)
TemperatureC °F DewpointC °F PressurehPa in Calm     Humidity % HourlyPrecipMM in
00:00 -13.0 °F -14.3 °F 1047.3 in Calm     90 % 0.0 in
00:15 -13.4 °F -14.7 °F 1047.6 in Calm     90 % 0.0 in
00:30 -13.6 °F -14.8 °F 1047.6 in Calm     90 % 0.0 in
00:45 -13.3 °F -14.3 °F 1047.6 in Calm   1.6 mph 92 % 0.0 in
01:00 -13.1 °F -14.1 °F 1047.6 in Calm     92 % 0.0 in
01:30 -12.3 °F -13.3 °F 1047.6 in Calm     92 % 0.0 in
01:45 -12.0 °F -13.0 °F 1047.6 in Calm     92 % 0.0 in
02:00 -11.8 °F -12.8 °F 1048.0 in Calm     92 % 0.0 in
02:15 -11.6 °F -12.6 °F 1047.6 in Calm     92 % 0.0 in
02:30 -11.4 °F -12.4 °F 1047.6 in Calm     92 % 0.0 in
03:00 -11.2 °F -12.2 °F 1047.6 in Calm     92 % 0.0 in
03:15 -11.1 °F -12.2 °F 1047.6 in Calm     91 % 0.0 in
03:30 -11.1 °F -12.2 °F 1047.6 in Calm     91 % 0.0 in
04:00 -10.8 °F -11.9 °F 1047.6 in Calm     92 % 0.0 in
04:15 -10.7 °F -11.8 °F 1047.6 in Calm     92 % 0.0 in
04:30 -10.7 °F -11.7 °F 1047.6 in Calm     92 % 0.0 in
04:45 -10.5 °F -11.5 °F 1047.3 in Calm     92 % 0.0 in
05:00 -10.4 °F -11.5 °F 1047.3 in Calm     92 % 0.0 in
05:15 -10.2 °F -11.3 °F 1047.3 in Calm     92 % 0.0 in
05:30 -10.2 °F -11.2 °F 1047.3 in Calm     92 % 0.0 in
05:45 -10.1 °F -11.1 °F 1047.3 in Calm     92 % 0.0 in
06:00 -10.0 °F -11.1 °F 1047.3 in Calm     92 % 0.0 in
06:15 -9.9 °F -11.0 °F 1047.3 in Calm   1.6 mph 92 % 0.0 in
06:30 -10.0 °F -11.1 °F 1047.3 in Calm     92 % 0.0 in
06:45 -10.1 °F -11.1 °F 1047.3 in Calm     92 % 0.0 in
07:00 -10.2 °F -11.2 °F 1047.3 in Calm     92 % 0.0 in
07:15 -10.3 °F -11.3 °F 1047.3 in Calm     92 % 0.0 in
07:30 -10.5 °F -11.7 °F 1047.3 in Calm   6.4 mph 91 % 0.0 in
07:45 -10.7 °F -11.9 °F 1047.6 in Calm   1.6 mph 91 % 0.0 in
08:00 -10.9 °F -12.1 °F 1047.6 in Calm     91 % 0.0 in
08:15 -11.2 °F -12.5 °F 1047.6 in Calm     90 % 0.0 in
08:30 -11.6 °F -12.9 °F 1047.6 in Calm     90 % 0.0 in
08:45 -12.0 °F -13.3 °F 1047.6 in Calm     90 % 0.0 in
09:00 -12.4 °F -13.7 °F 1047.6 in Calm     90 % 0.0 in
09:15 -13.0 °F -14.4 °F 1047.6 in Calm     89 % 0.0 in
09:30 -13.3 °F -14.6 °F 1047.6 in Calm     90 % 0.0 in
09:45 -13.3 °F -14.6 °F 1047.6 in Calm     90 % 0.0 in
10:00 -13.2 °F -14.3 °F 1047.6 in Calm     91 % 0.0 in
10:15 -12.7 °F -13.8 °F 1047.6 in Calm   1.6 mph 92 % 0.0 in
10:30 -12.4 °F -13.5 °F 1047.6 in Calm     92 % 0.0 in
10:45 -12.0 °F -13.0 °F 1047.6 in Calm   3.2 mph 92 % 0.0 in
11:00 -11.7 °F -12.8 °F 1048.0 in Calm     92 % 0.0 in
11:15 -11.5 °F -12.5 °F 1048.0 in Calm     92 % 0.0 in
11:30 -11.3 °F -12.4 °F 1048.0 in Calm   1.6 mph 92 % 0.0 in
11:45 -11.1 °F -12.2 °F 1048.0 in Calm     92 % 0.0 in
12:00 -10.7 °F -11.7 °F 1047.6 in Calm     92 % 0.0 in
12:15 -10.2 °F -11.3 °F 1048.0 in Calm     92 % 0.0 in
12:30 -9.7 °F -11.1 °F 1048.0 in Calm   1.6 mph 90 % 0.0 in
12:45 -9.8 °F -11.2 °F 1047.6 in Calm   3.2 mph 89 % 0.0 in
13:00 -9.7 °F -11.2 °F 1047.6 in Calm   3.2 mph 89 % 0.0 in
13:15 -9.6 °F -11.0 °F 1047.3 in Calm     89 % 0.0 in
13:30 -9.4 °F -10.9 °F 1047.3 in Calm     89 % 0.0 in
13:45 -9.4 °F -10.9 °F 1047.3 in Calm     89 % 0.0 in
14:00 -9.1 °F -10.6 °F 1047.3 in Calm   1.6 mph 89 % 0.0 in
14:15 -9.1 °F -10.5 °F 1047.0 in Calm     89 % 0.0 in
14:30 -9.0 °F -10.5 °F 1047.0 in Calm     89 % 0.0 in
14:45 -8.9 °F -10.4 °F 1047.0 in Calm     89 % 0.0 in
15:00 -8.6 °F -10.0 °F 1046.6 in Calm     89 % 0.0 in
15:15 -8.1 °F -9.7 °F 1046.6 in Calm     88 % 0.0 in
15:30 -8.2 °F -9.9 °F 1046.6 in Calm     87 % 0.0 in
15:45 -7.8 °F -9.5 °F 1046.3 in Calm     88 % 0.0 in
16:00 -8.1 °F -10.0 °F 1046.3 in Calm     86 % 0.0 in
16:15 -8.4 °F -10.4 °F 1046.6 in Calm     86 % 0.0 in
16:30 -8.8 °F -10.5 °F 1046.6 in Calm     87 % 0.0 in
16:45 -9.1 °F -10.7 °F 1046.3 in Calm     88 % 0.0 in
17:00 -9.7 °F -11.4 °F 1046.3 in Calm     87 % 0.0 in
17:15 -10.4 °F -12.0 °F 1046.3 in Calm     88 % 0.0 in
17:30 -11.0 °F -12.5 °F 1046.3 in Calm     89 % 0.0 in
17:45 -11.6 °F -13.0 °F 1046.3 in Calm     89 % 0.0 in
18:00 -12.0 °F -13.4 °F 1046.3 in Calm     89 % 0.0 in
18:15 -12.5 °F -13.9 °F 1046.3 in Calm     89 % 0.0 in
18:30 -12.7 °F -14.0 °F 1045.9 in Calm     90 % 0.0 in
18:45 -13.0 °F -14.3 °F 1045.9 in Calm     90 % 0.0 in
19:00 -13.3 °F -14.6 °F 1045.9 in Calm     90 % 0.0 in
19:15 -13.3 °F -14.6 °F 1045.9 in Calm     90 % 0.0 in
19:30 -13.3 °F -14.6 °F 1045.9 in Calm     90 % 0.0 in
19:45 -13.4 °F -14.7 °F 1045.6 in Calm     90 % 0.0 in
20:00 -13.7 °F -15.1 °F 1045.9 in Calm     89 % 0.0 in
20:15 -13.9 °F -15.2 °F 1045.6 in Calm     90 % 0.0 in
20:30 -14.1 °F -15.5 °F 1045.6 in Calm     89 % 0.0 in
20:45 -14.3 °F -15.7 °F 1045.6 in Calm     89 % 0.0 in
21:00 -14.5 °F -15.9 °F 1045.6 in Calm     89 % 0.0 in
21:15 -14.7 °F -16.1 °F 1045.6 in Calm     89 % 0.0 in
21:30 -14.8 °F -16.2 °F 1045.6 in Calm     89 % 0.0 in
21:45 -14.8 °F -16.1 °F 1045.6 in Calm     90 % 0.0 in
22:00 -14.8 °F -16.2 °F 1045.3 in Calm     89 % 0.0 in
22:15 -15.0 °F -15.0 °F 1045.3 in Calm     100 % 0.0 in
22:30 -15.1 °F -16.5 °F 1045.3 in Calm     89 % 0.0 in
22:45 -15.3 °F -16.7 °F 1045.3 in Calm     89 % 0.0 in
23:15 -15.8 °F -17.2 °F 1045.3 in Calm     89 % 0.0 in
23:30 -15.9 °F -17.5 °F 1045.3 in Calm     88 % 0.0 in
23:45 -16.2 °F -17.7 °F 1045.3 in Calm     88 % 0.0 in
Esan sääasema
Terveisin Weather Underground - 2.75 mb

Alkuperäinen skripti  Jim McMurry - jmcmurry@mwt.net Sovitettu myös templatelle  Wim van der Kuil - Leuven-Template.eu

Laitteet joita käytämme:

Sääasema
Davis VP2

Sääasemaohjelma
Cumulus

Sääaseman tietokone
Asus EeePC

Palveluntarjoaja
Suncomet

Davis VP2

Cumulus

Asus EeePC

Suncomet